sensor_id;sensor_type;location;lat;lon;timestamp;P1;durP1;ratioP1;P2;durP2;ratioP2
11247;SDS011;5681;53.316;13.950;2022-08-26T00:01:39;19.60;;;8.45;;
11247;SDS011;5681;53.316;13.950;2022-08-26T00:04:07;15.48;;;7.57;;
11247;SDS011;5681;53.316;13.950;2022-08-26T00:06:34;14.48;;;7.20;;
11247;SDS011;5681;53.316;13.950;2022-08-26T00:09:01;14.93;;;7.90;;
11247;SDS011;5681;53.316;13.950;2022-08-26T00:11:28;19.90;;;8.55;;
11247;SDS011;5681;53.316;13.950;2022-08-26T00:13:55;20.50;;;8.38;;
11247;SDS011;5681;53.316;13.950;2022-08-26T00:16:22;16.58;;;8.18;;
11247;SDS011;5681;53.316;13.950;2022-08-26T00:18:49;13.05;;;7.50;;
11247;SDS011;5681;53.316;13.950;2022-08-26T00:21:16;15.48;;;7.93;;
11247;SDS011;5681;53.316;13.950;2022-08-26T00:23:43;16.73;;;8.23;;
11247;SDS011;5681;53.316;13.950;2022-08-26T00:26:09;17.00;;;8.18;;
11247;SDS011;5681;53.316;13.950;2022-08-26T00:28:36;13.85;;;7.53;;
11247;SDS011;5681;53.316;13.950;2022-08-26T00:31:03;16.40;;;8.30;;
11247;SDS011;5681;53.316;13.950;2022-08-26T00:33:30;13.90;;;8.10;;
11247;SDS011;5681;53.316;13.950;2022-08-26T00:35:56;17.38;;;7.32;;
11247;SDS011;5681;53.316;13.950;2022-08-26T00:38:24;17.60;;;7.97;;
11247;SDS011;5681;53.316;13.950;2022-08-26T00:40:51;16.95;;;7.80;;
11247;SDS011;5681;53.316;13.950;2022-08-26T00:43:19;21.02;;;8.13;;
11247;SDS011;5681;53.316;13.950;2022-08-26T00:45:48;17.55;;;8.13;;
11247;SDS011;5681;53.316;13.950;2022-08-26T00:48:19;20.27;;;8.05;;
11247;SDS011;5681;53.316;13.950;2022-08-26T00:50:47;24.33;;;8.27;;
11247;SDS011;5681;53.316;13.950;2022-08-26T00:53:15;18.13;;;8.00;;
11247;SDS011;5681;53.316;13.950;2022-08-26T00:55:50;18.02;;;8.73;;
11247;SDS011;5681;53.316;13.950;2022-08-26T00:58:18;13.93;;;8.70;;
11247;SDS011;5681;53.316;13.950;2022-08-26T01:00:45;12.38;;;7.32;;
11247;SDS011;5681;53.316;13.950;2022-08-26T01:03:12;14.48;;;8.20;;
11247;SDS011;5681;53.316;13.950;2022-08-26T01:05:39;18.60;;;8.70;;
11247;SDS011;5681;53.316;13.950;2022-08-26T01:08:06;18.52;;;8.65;;
11247;SDS011;5681;53.316;13.950;2022-08-26T01:10:32;15.90;;;8.23;;
11247;SDS011;5681;53.316;13.950;2022-08-26T01:13:02;17.02;;;8.48;;
11247;SDS011;5681;53.316;13.950;2022-08-26T01:15:30;15.73;;;8.30;;
11247;SDS011;5681;53.316;13.950;2022-08-26T01:17:58;15.75;;;8.52;;
11247;SDS011;5681;53.316;13.950;2022-08-26T01:20:26;13.98;;;8.13;;
11247;SDS011;5681;53.316;13.950;2022-08-26T01:22:56;19.20;;;8.52;;
11247;SDS011;5681;53.316;13.950;2022-08-26T01:25:24;21.75;;;9.10;;
11247;SDS011;5681;53.316;13.950;2022-08-26T01:27:51;17.02;;;8.55;;
11247;SDS011;5681;53.316;13.950;2022-08-26T01:30:19;20.75;;;8.90;;
11247;SDS011;5681;53.316;13.950;2022-08-26T01:32:46;17.42;;;8.13;;
11247;SDS011;5681;53.316;13.950;2022-08-26T01:35:14;15.60;;;8.35;;
11247;SDS011;5681;53.316;13.950;2022-08-26T01:37:40;19.83;;;8.60;;
11247;SDS011;5681;53.316;13.950;2022-08-26T01:40:08;17.48;;;7.97;;
11247;SDS011;5681;53.316;13.950;2022-08-26T01:42:40;18.50;;;8.48;;
11247;SDS011;5681;53.316;13.950;2022-08-26T01:45:08;15.48;;;8.45;;
11247;SDS011;5681;53.316;13.950;2022-08-26T01:47:37;15.50;;;8.10;;
11247;SDS011;5681;53.316;13.950;2022-08-26T01:50:05;15.35;;;8.55;;
11247;SDS011;5681;53.316;13.950;2022-08-26T01:52:34;17.08;;;7.80;;
11247;SDS011;5681;53.316;13.950;2022-08-26T01:55:05;16.95;;;8.88;;
11247;SDS011;5681;53.316;13.950;2022-08-26T01:57:34;23.42;;;8.77;;
11247;SDS011;5681;53.316;13.950;2022-08-26T02:00:03;13.32;;;8.20;;
11247;SDS011;5681;53.316;13.950;2022-08-26T02:02:32;16.35;;;8.20;;
11247;SDS011;5681;53.316;13.950;2022-08-26T02:05:00;12.93;;;8.10;;
11247;SDS011;5681;53.316;13.950;2022-08-26T02:07:29;15.23;;;8.18;;
11247;SDS011;5681;53.316;13.950;2022-08-26T02:09:56;15.52;;;8.60;;
11247;SDS011;5681;53.316;13.950;2022-08-26T02:12:23;16.30;;;9.23;;
11247;SDS011;5681;53.316;13.950;2022-08-26T02:14:53;11.13;;;7.40;;
11247;SDS011;5681;53.316;13.950;2022-08-26T02:17:23;14.00;;;8.75;;
11247;SDS011;5681;53.316;13.950;2022-08-26T02:19:54;17.70;;;9.27;;
11247;SDS011;5681;53.316;13.950;2022-08-26T02:22:21;20.77;;;9.80;;
11247;SDS011;5681;53.316;13.950;2022-08-26T02:24:49;15.70;;;8.98;;
11247;SDS011;5681;53.316;13.950;2022-08-26T02:27:17;18.58;;;9.43;;
11247;SDS011;5681;53.316;13.950;2022-08-26T02:29:45;15.80;;;8.45;;
11247;SDS011;5681;53.316;13.950;2022-08-26T02:32:14;17.67;;;9.13;;
11247;SDS011;5681;53.316;13.950;2022-08-26T02:34:41;18.55;;;9.82;;
11247;SDS011;5681;53.316;13.950;2022-08-26T02:37:08;15.43;;;8.75;;
11247;SDS011;5681;53.316;13.950;2022-08-26T02:39:36;14.70;;;9.18;;
11247;SDS011;5681;53.316;13.950;2022-08-26T02:42:04;20.70;;;9.68;;
11247;SDS011;5681;53.316;13.950;2022-08-26T02:44:30;17.50;;;9.52;;
11247;SDS011;5681;53.316;13.950;2022-08-26T02:46:57;22.88;;;10.45;;
11247;SDS011;5681;53.316;13.950;2022-08-26T02:49:26;15.38;;;9.63;;
11247;SDS011;5681;53.316;13.950;2022-08-26T02:51:54;15.75;;;9.13;;
11247;SDS011;5681;53.316;13.950;2022-08-26T02:54:21;21.30;;;10.73;;
11247;SDS011;5681;53.316;13.950;2022-08-26T02:56:48;14.05;;;8.90;;
11247;SDS011;5681;53.316;13.950;2022-08-26T02:59:15;19.08;;;10.65;;
11247;SDS011;5681;53.316;13.950;2022-08-26T03:01:42;15.35;;;9.15;;
11247;SDS011;5681;53.316;13.950;2022-08-26T03:04:09;19.20;;;9.60;;
11247;SDS011;5681;53.316;13.950;2022-08-26T03:06:38;12.88;;;8.65;;
11247;SDS011;5681;53.316;13.950;2022-08-26T03:09:04;13.32;;;9.20;;
11247;SDS011;5681;53.316;13.950;2022-08-26T03:11:32;18.17;;;9.30;;
11247;SDS011;5681;53.316;13.950;2022-08-26T03:13:59;16.30;;;9.38;;
11247;SDS011;5681;53.316;13.950;2022-08-26T03:16:29;12.82;;;8.95;;
11247;SDS011;5681;53.316;13.950;2022-08-26T03:18:56;15.48;;;9.63;;
11247;SDS011;5681;53.316;13.950;2022-08-26T03:21:22;17.58;;;9.82;;
11247;SDS011;5681;53.316;13.950;2022-08-26T03:23:50;13.50;;;8.77;;
11247;SDS011;5681;53.316;13.950;2022-08-26T03:26:16;14.93;;;9.45;;
11247;SDS011;5681;53.316;13.950;2022-08-26T03:28:42;14.70;;;8.90;;
11247;SDS011;5681;53.316;13.950;2022-08-26T03:31:23;15.23;;;9.32;;
11247;SDS011;5681;53.316;13.950;2022-08-26T03:33:49;16.63;;;9.98;;
11247;SDS011;5681;53.316;13.950;2022-08-26T03:36:16;20.50;;;9.77;;
11247;SDS011;5681;53.316;13.950;2022-08-26T03:38:42;17.05;;;9.52;;
11247;SDS011;5681;53.316;13.950;2022-08-26T03:41:10;21.30;;;11.63;;
11247;SDS011;5681;53.316;13.950;2022-08-26T03:43:36;19.75;;;10.23;;
11247;SDS011;5681;53.316;13.950;2022-08-26T03:46:03;19.08;;;10.10;;
11247;SDS011;5681;53.316;13.950;2022-08-26T03:48:29;19.25;;;9.68;;
11247;SDS011;5681;53.316;13.950;2022-08-26T03:50:56;14.80;;;9.80;;
11247;SDS011;5681;53.316;13.950;2022-08-26T03:53:22;16.60;;;10.27;;
11247;SDS011;5681;53.316;13.950;2022-08-26T03:55:48;14.25;;;10.05;;
11247;SDS011;5681;53.316;13.950;2022-08-26T03:58:16;17.00;;;10.23;;
11247;SDS011;5681;53.316;13.950;2022-08-26T04:00:42;19.55;;;9.55;;
11247;SDS011;5681;53.316;13.950;2022-08-26T04:03:09;14.13;;;10.25;;
11247;SDS011;5681;53.316;13.950;2022-08-26T04:05:36;14.02;;;9.32;;
11247;SDS011;5681;53.316;13.950;2022-08-26T04:08:03;18.13;;;10.57;;
11247;SDS011;5681;53.316;13.950;2022-08-26T04:10:30;14.27;;;10.90;;
11247;SDS011;5681;53.316;13.950;2022-08-26T04:12:57;13.90;;;9.35;;
11247;SDS011;5681;53.316;13.950;2022-08-26T04:15:25;13.02;;;9.13;;
11247;SDS011;5681;53.316;13.950;2022-08-26T04:17:52;15.30;;;8.95;;
11247;SDS011;5681;53.316;13.950;2022-08-26T04:20:18;15.52;;;9.43;;
11247;SDS011;5681;53.316;13.950;2022-08-26T04:22:44;11.77;;;9.23;;
11247;SDS011;5681;53.316;13.950;2022-08-26T04:25:11;15.10;;;9.82;;
11247;SDS011;5681;53.316;13.950;2022-08-26T04:27:38;14.63;;;9.18;;
11247;SDS011;5681;53.316;13.950;2022-08-26T04:30:05;16.85;;;10.15;;
11247;SDS011;5681;53.316;13.950;2022-08-26T04:32:34;13.75;;;10.07;;
11247;SDS011;5681;53.316;13.950;2022-08-26T04:35:00;14.80;;;10.13;;
11247;SDS011;5681;53.316;13.950;2022-08-26T04:37:27;16.50;;;10.13;;
11247;SDS011;5681;53.316;13.950;2022-08-26T04:39:55;12.45;;;9.93;;
11247;SDS011;5681;53.316;13.950;2022-08-26T04:42:21;19.92;;;11.27;;
11247;SDS011;5681;53.316;13.950;2022-08-26T04:44:47;13.77;;;10.70;;
11247;SDS011;5681;53.316;13.950;2022-08-26T04:47:14;16.55;;;10.52;;
11247;SDS011;5681;53.316;13.950;2022-08-26T04:49:42;12.27;;;9.48;;
11247;SDS011;5681;53.316;13.950;2022-08-26T04:52:08;15.25;;;10.10;;
11247;SDS011;5681;53.316;13.950;2022-08-26T04:54:35;16.48;;;10.80;;
11247;SDS011;5681;53.316;13.950;2022-08-26T04:57:02;16.63;;;10.93;;
11247;SDS011;5681;53.316;13.950;2022-08-26T04:59:29;19.80;;;11.05;;
11247;SDS011;5681;53.316;13.950;2022-08-26T05:01:55;16.70;;;11.15;;
11247;SDS011;5681;53.316;13.950;2022-08-26T05:04:23;16.90;;;10.82;;
11247;SDS011;5681;53.316;13.950;2022-08-26T05:06:51;16.02;;;10.38;;
11247;SDS011;5681;53.316;13.950;2022-08-26T05:09:17;14.65;;;10.25;;
11247;SDS011;5681;53.316;13.950;2022-08-26T05:11:44;15.30;;;9.85;;
11247;SDS011;5681;53.316;13.950;2022-08-26T05:14:11;12.82;;;9.23;;
11247;SDS011;5681;53.316;13.950;2022-08-26T05:16:37;14.73;;;10.07;;
11247;SDS011;5681;53.316;13.950;2022-08-26T05:19:04;20.23;;;10.48;;
11247;SDS011;5681;53.316;13.950;2022-08-26T05:21:31;17.27;;;11.30;;
11247;SDS011;5681;53.316;13.950;2022-08-26T05:23:59;20.90;;;13.25;;
11247;SDS011;5681;53.316;13.950;2022-08-26T05:26:26;20.63;;;11.40;;
11247;SDS011;5681;53.316;13.950;2022-08-26T05:28:55;20.52;;;12.18;;
11247;SDS011;5681;53.316;13.950;2022-08-26T05:31:22;26.50;;;12.93;;
11247;SDS011;5681;53.316;13.950;2022-08-26T05:33:51;23.60;;;13.70;;
11247;SDS011;5681;53.316;13.950;2022-08-26T05:36:18;26.38;;;13.40;;
11247;SDS011;5681;53.316;13.950;2022-08-26T05:38:45;25.45;;;14.40;;
11247;SDS011;5681;53.316;13.950;2022-08-26T05:41:14;24.50;;;13.15;;
11247;SDS011;5681;53.316;13.950;2022-08-26T05:43:42;21.77;;;13.32;;
11247;SDS011;5681;53.316;13.950;2022-08-26T05:46:09;24.35;;;12.95;;
11247;SDS011;5681;53.316;13.950;2022-08-26T05:48:35;21.48;;;13.02;;
11247;SDS011;5681;53.316;13.950;2022-08-26T05:51:02;20.52;;;12.57;;
11247;SDS011;5681;53.316;13.950;2022-08-26T05:53:30;21.48;;;12.80;;
11247;SDS011;5681;53.316;13.950;2022-08-26T05:55:57;16.90;;;12.77;;
11247;SDS011;5681;53.316;13.950;2022-08-26T05:58:25;22.38;;;12.30;;
11247;SDS011;5681;53.316;13.950;2022-08-26T06:00:56;22.98;;;12.85;;
11247;SDS011;5681;53.316;13.950;2022-08-26T06:03:23;18.92;;;12.13;;
11247;SDS011;5681;53.316;13.950;2022-08-26T06:05:50;23.17;;;13.30;;
11247;SDS011;5681;53.316;13.950;2022-08-26T06:08:16;22.48;;;13.85;;
11247;SDS011;5681;53.316;13.950;2022-08-26T06:10:45;28.88;;;11.95;;
11247;SDS011;5681;53.316;13.950;2022-08-26T06:13:12;24.92;;;12.65;;
11247;SDS011;5681;53.316;13.950;2022-08-26T06:15:41;22.70;;;12.48;;
11247;SDS011;5681;53.316;13.950;2022-08-26T06:18:09;26.90;;;13.23;;
11247;SDS011;5681;53.316;13.950;2022-08-26T06:20:36;21.15;;;12.73;;
11247;SDS011;5681;53.316;13.950;2022-08-26T06:23:07;21.55;;;12.07;;
11247;SDS011;5681;53.316;13.950;2022-08-26T06:25:51;28.52;;;12.48;;
11247;SDS011;5681;53.316;13.950;2022-08-26T06:28:18;30.25;;;13.30;;
11247;SDS011;5681;53.316;13.950;2022-08-26T06:30:46;24.13;;;12.30;;
11247;SDS011;5681;53.316;13.950;2022-08-26T06:33:12;25.13;;;13.05;;
11247;SDS011;5681;53.316;13.950;2022-08-26T06:35:39;29.23;;;13.20;;
11247;SDS011;5681;53.316;13.950;2022-08-26T06:38:07;24.42;;;12.38;;
11247;SDS011;5681;53.316;13.950;2022-08-26T06:40:38;23.42;;;12.55;;
11247;SDS011;5681;53.316;13.950;2022-08-26T06:43:06;30.90;;;14.02;;
11247;SDS011;5681;53.316;13.950;2022-08-26T06:45:32;27.80;;;12.35;;
11247;SDS011;5681;53.316;13.950;2022-08-26T06:48:00;26.85;;;12.60;;
11247;SDS011;5681;53.316;13.950;2022-08-26T06:50:26;31.77;;;12.95;;
11247;SDS011;5681;53.316;13.950;2022-08-26T06:52:53;26.10;;;12.50;;
11247;SDS011;5681;53.316;13.950;2022-08-26T06:55:19;22.45;;;11.52;;
11247;SDS011;5681;53.316;13.950;2022-08-26T06:57:45;21.45;;;11.65;;
11247;SDS011;5681;53.316;13.950;2022-08-26T07:00:12;24.98;;;12.77;;
11247;SDS011;5681;53.316;13.950;2022-08-26T07:02:39;24.85;;;11.23;;
11247;SDS011;5681;53.316;13.950;2022-08-26T07:05:08;18.58;;;10.02;;
11247;SDS011;5681;53.316;13.950;2022-08-26T07:07:35;21.67;;;10.65;;
11247;SDS011;5681;53.316;13.950;2022-08-26T07:10:02;24.85;;;10.80;;
11247;SDS011;5681;53.316;13.950;2022-08-26T07:12:28;26.13;;;12.45;;
11247;SDS011;5681;53.316;13.950;2022-08-26T07:14:55;22.90;;;10.90;;
11247;SDS011;5681;53.316;13.950;2022-08-26T07:17:21;20.73;;;11.15;;
11247;SDS011;5681;53.316;13.950;2022-08-26T07:19:47;24.48;;;11.75;;
11247;SDS011;5681;53.316;13.950;2022-08-26T07:22:15;29.42;;;10.32;;
11247;SDS011;5681;53.316;13.950;2022-08-26T07:24:42;28.48;;;11.02;;
11247;SDS011;5681;53.316;13.950;2022-08-26T07:27:10;24.85;;;11.50;;
11247;SDS011;5681;53.316;13.950;2022-08-26T07:29:39;27.92;;;11.10;;
11247;SDS011;5681;53.316;13.950;2022-08-26T07:32:06;23.35;;;10.20;;
11247;SDS011;5681;53.316;13.950;2022-08-26T07:34:33;28.13;;;10.05;;
11247;SDS011;5681;53.316;13.950;2022-08-26T07:37:01;24.55;;;11.85;;
11247;SDS011;5681;53.316;13.950;2022-08-26T07:39:30;23.17;;;9.55;;
11247;SDS011;5681;53.316;13.950;2022-08-26T07:41:56;28.63;;;9.23;;
11247;SDS011;5681;53.316;13.950;2022-08-26T07:44:23;26.48;;;9.73;;
11247;SDS011;5681;53.316;13.950;2022-08-26T07:46:51;22.92;;;9.15;;
11247;SDS011;5681;53.316;13.950;2022-08-26T07:49:17;29.42;;;9.45;;
11247;SDS011;5681;53.316;13.950;2022-08-26T07:51:44;24.48;;;8.73;;
11247;SDS011;5681;53.316;13.950;2022-08-26T07:54:10;22.25;;;7.80;;
11247;SDS011;5681;53.316;13.950;2022-08-26T07:56:38;27.25;;;9.77;;
11247;SDS011;5681;53.316;13.950;2022-08-26T07:59:04;22.98;;;8.93;;
11247;SDS011;5681;53.316;13.950;2022-08-26T08:01:30;24.33;;;8.43;;
11247;SDS011;5681;53.316;13.950;2022-08-26T08:03:57;34.03;;;9.57;;
11247;SDS011;5681;53.316;13.950;2022-08-26T08:06:24;27.27;;;9.52;;
11247;SDS011;5681;53.316;13.950;2022-08-26T08:08:51;32.90;;;9.18;;
11247;SDS011;5681;53.316;13.950;2022-08-26T08:11:18;29.88;;;9.15;;
11247;SDS011;5681;53.316;13.950;2022-08-26T08:13:47;27.95;;;7.30;;
11247;SDS011;5681;53.316;13.950;2022-08-26T08:16:14;27.38;;;8.73;;
11247;SDS011;5681;53.316;13.950;2022-08-26T08:18:41;21.95;;;8.52;;
11247;SDS011;5681;53.316;13.950;2022-08-26T08:21:07;19.65;;;7.00;;
11247;SDS011;5681;53.316;13.950;2022-08-26T08:23:34;24.17;;;7.30;;
11247;SDS011;5681;53.316;13.950;2022-08-26T08:26:00;24.95;;;7.47;;
11247;SDS011;5681;53.316;13.950;2022-08-26T08:28:28;21.58;;;7.18;;
11247;SDS011;5681;53.316;13.950;2022-08-26T08:30:55;20.80;;;6.22;;
11247;SDS011;5681;53.316;13.950;2022-08-26T08:33:22;29.67;;;6.97;;
11247;SDS011;5681;53.316;13.950;2022-08-26T08:35:50;23.85;;;6.85;;
11247;SDS011;5681;53.316;13.950;2022-08-26T08:38:16;21.67;;;6.95;;
11247;SDS011;5681;53.316;13.950;2022-08-26T08:40:43;23.75;;;5.80;;
11247;SDS011;5681;53.316;13.950;2022-08-26T08:43:11;25.33;;;6.05;;
11247;SDS011;5681;53.316;13.950;2022-08-26T08:45:39;24.85;;;6.28;;
11247;SDS011;5681;53.316;13.950;2022-08-26T08:48:11;28.52;;;6.68;;
11247;SDS011;5681;53.316;13.950;2022-08-26T08:50:41;24.90;;;6.70;;
11247;SDS011;5681;53.316;13.950;2022-08-26T08:53:11;28.60;;;6.57;;
11247;SDS011;5681;53.316;13.950;2022-08-26T08:55:46;21.00;;;6.25;;
11247;SDS011;5681;53.316;13.950;2022-08-26T08:58:18;21.60;;;6.50;;
11247;SDS011;5681;53.316;13.950;2022-08-26T09:00:47;16.85;;;6.00;;
11247;SDS011;5681;53.316;13.950;2022-08-26T09:03:20;25.20;;;6.18;;
11247;SDS011;5681;53.316;13.950;2022-08-26T09:05:52;25.67;;;6.15;;
11247;SDS011;5681;53.316;13.950;2022-08-26T09:08:20;25.08;;;5.75;;
11247;SDS011;5681;53.316;13.950;2022-08-26T09:10:49;26.50;;;5.97;;
11247;SDS011;5681;53.316;13.950;2022-08-26T09:13:18;23.45;;;6.10;;
11247;SDS011;5681;53.316;13.950;2022-08-26T09:15:47;20.13;;;5.78;;
11247;SDS011;5681;53.316;13.950;2022-08-26T09:18:22;29.20;;;6.45;;
11247;SDS011;5681;53.316;13.950;2022-08-26T09:20:57;23.52;;;6.13;;
11247;SDS011;5681;53.316;13.950;2022-08-26T09:23:27;29.70;;;6.93;;
11247;SDS011;5681;53.316;13.950;2022-08-26T09:25:54;19.05;;;5.90;;
11247;SDS011;5681;53.316;13.950;2022-08-26T09:28:23;23.75;;;6.28;;
11247;SDS011;5681;53.316;13.950;2022-08-26T09:30:57;22.10;;;5.85;;
11247;SDS011;5681;53.316;13.950;2022-08-26T09:33:30;21.85;;;6.82;;
11247;SDS011;5681;53.316;13.950;2022-08-26T09:36:11;26.02;;;6.40;;
11247;SDS011;5681;53.316;13.950;2022-08-26T09:38:39;26.45;;;6.68;;
11247;SDS011;5681;53.316;13.950;2022-08-26T09:41:17;20.48;;;5.95;;
11247;SDS011;5681;53.316;13.950;2022-08-26T09:43:48;22.33;;;6.82;;
11247;SDS011;5681;53.316;13.950;2022-08-26T09:46:33;24.67;;;6.57;;
11247;SDS011;5681;53.316;13.950;2022-08-26T09:49:08;22.00;;;6.47;;
11247;SDS011;5681;53.316;13.950;2022-08-26T09:51:48;26.63;;;6.20;;
11247;SDS011;5681;53.316;13.950;2022-08-26T09:54:28;31.38;;;6.47;;
11247;SDS011;5681;53.316;13.950;2022-08-26T09:56:57;27.10;;;6.07;;
11247;SDS011;5681;53.316;13.950;2022-08-26T09:59:35;23.17;;;6.20;;
11247;SDS011;5681;53.316;13.950;2022-08-26T10:02:13;22.27;;;6.20;;
11247;SDS011;5681;53.316;13.950;2022-08-26T10:04:49;24.80;;;6.50;;
11247;SDS011;5681;53.316;13.950;2022-08-26T10:07:32;22.80;;;6.10;;
11247;SDS011;5681;53.316;13.950;2022-08-26T10:12:28;24.65;;;6.45;;
11247;SDS011;5681;53.316;13.950;2022-08-26T10:14:58;18.33;;;5.85;;
11247;SDS011;5681;53.316;13.950;2022-08-26T10:17:30;30.27;;;7.40;;
11247;SDS011;5681;53.316;13.950;2022-08-26T10:20:03;30.05;;;6.50;;
11247;SDS011;5681;53.316;13.950;2022-08-26T10:22:32;31.70;;;6.88;;
11247;SDS011;5681;53.316;13.950;2022-08-26T10:25:04;32.67;;;6.57;;
11247;SDS011;5681;53.316;13.950;2022-08-26T10:27:34;20.52;;;6.28;;
11247;SDS011;5681;53.316;13.950;2022-08-26T10:30:05;23.88;;;6.68;;
11247;SDS011;5681;53.316;13.950;2022-08-26T10:32:35;26.70;;;6.55;;
11247;SDS011;5681;53.316;13.950;2022-08-26T10:35:04;28.85;;;6.35;;
11247;SDS011;5681;53.316;13.950;2022-08-26T10:37:33;25.23;;;6.32;;
11247;SDS011;5681;53.316;13.950;2022-08-26T10:40:03;32.00;;;6.85;;
11247;SDS011;5681;53.316;13.950;2022-08-26T10:42:34;30.55;;;6.35;;
11247;SDS011;5681;53.316;13.950;2022-08-26T10:45:04;26.65;;;6.22;;
11247;SDS011;5681;53.316;13.950;2022-08-26T10:47:34;31.52;;;6.05;;
11247;SDS011;5681;53.316;13.950;2022-08-26T10:50:05;35.00;;;6.20;;
11247;SDS011;5681;53.316;13.950;2022-08-26T10:52:37;31.27;;;6.35;;
11247;SDS011;5681;53.316;13.950;2022-08-26T10:55:14;32.47;;;6.30;;
11247;SDS011;5681;53.316;13.950;2022-08-26T10:57:45;29.40;;;5.95;;
11247;SDS011;5681;53.316;13.950;2022-08-26T11:00:15;35.53;;;6.15;;
11247;SDS011;5681;53.316;13.950;2022-08-26T11:03:05;21.70;;;5.32;;
11247;SDS011;5681;53.316;13.950;2022-08-26T11:05:35;31.00;;;5.80;;
11247;SDS011;5681;53.316;13.950;2022-08-26T11:10:53;30.73;;;6.15;;
11247;SDS011;5681;53.316;13.950;2022-08-26T11:16:30;22.90;;;5.38;;
11247;SDS011;5681;53.316;13.950;2022-08-26T11:18:58;33.85;;;6.57;;
11247;SDS011;5681;53.316;13.950;2022-08-26T11:27:49;23.38;;;5.97;;
11247;SDS011;5681;53.316;13.950;2022-08-26T11:30:39;32.35;;;6.05;;
11247;SDS011;5681;53.316;13.950;2022-08-26T11:33:07;27.33;;;6.30;;
11247;SDS011;5681;53.316;13.950;2022-08-26T11:35:44;25.60;;;6.30;;
11247;SDS011;5681;53.316;13.950;2022-08-26T11:38:14;25.33;;;6.07;;
11247;SDS011;5681;53.316;13.950;2022-08-26T11:40:43;24.15;;;6.53;;
11247;SDS011;5681;53.316;13.950;2022-08-26T11:43:12;25.63;;;6.15;;
11247;SDS011;5681;53.316;13.950;2022-08-26T11:45:41;30.02;;;7.40;;
11247;SDS011;5681;53.316;13.950;2022-08-26T11:48:15;27.48;;;6.13;;
11247;SDS011;5681;53.316;13.950;2022-08-26T11:50:51;21.58;;;5.72;;
11247;SDS011;5681;53.316;13.950;2022-08-26T11:53:17;22.85;;;6.03;;
11247;SDS011;5681;53.316;13.950;2022-08-26T11:55:44;27.33;;;5.80;;
11247;SDS011;5681;53.316;13.950;2022-08-26T11:58:12;21.38;;;6.78;;
11247;SDS011;5681;53.316;13.950;2022-08-26T12:00:46;21.88;;;5.95;;
11247;SDS011;5681;53.316;13.950;2022-08-26T12:03:16;25.80;;;6.05;;
11247;SDS011;5681;53.316;13.950;2022-08-26T12:05:44;19.17;;;6.05;;
11247;SDS011;5681;53.316;13.950;2022-08-26T12:08:13;24.67;;;6.13;;
11247;SDS011;5681;53.316;13.950;2022-08-26T12:10:42;20.30;;;6.35;;
11247;SDS011;5681;53.316;13.950;2022-08-26T12:13:15;19.95;;;5.97;;
11247;SDS011;5681;53.316;13.950;2022-08-26T12:15:50;23.83;;;6.75;;
11247;SDS011;5681;53.316;13.950;2022-08-26T12:18:19;24.58;;;6.93;;
11247;SDS011;5681;53.316;13.950;2022-08-26T12:20:47;22.42;;;5.65;;
11247;SDS011;5681;53.316;13.950;2022-08-26T12:23:21;22.08;;;6.38;;
11247;SDS011;5681;53.316;13.950;2022-08-26T12:25:49;23.55;;;6.13;;
11247;SDS011;5681;53.316;13.950;2022-08-26T12:28:16;29.23;;;6.43;;
11247;SDS011;5681;53.316;13.950;2022-08-26T12:30:58;16.55;;;6.28;;
11247;SDS011;5681;53.316;13.950;2022-08-26T12:33:25;24.20;;;6.20;;
11247;SDS011;5681;53.316;13.950;2022-08-26T12:35:52;22.10;;;6.00;;
11247;SDS011;5681;53.316;13.950;2022-08-26T12:38:19;27.73;;;6.22;;
11247;SDS011;5681;53.316;13.950;2022-08-26T12:40:45;23.63;;;5.65;;
11247;SDS011;5681;53.316;13.950;2022-08-26T12:43:34;25.67;;;5.75;;
11247;SDS011;5681;53.316;13.950;2022-08-26T12:46:02;29.60;;;6.80;;
11247;SDS011;5681;53.316;13.950;2022-08-26T12:48:30;24.10;;;5.80;;
11247;SDS011;5681;53.316;13.950;2022-08-26T12:50:58;25.25;;;5.82;;
11247;SDS011;5681;53.316;13.950;2022-08-26T12:53:26;27.17;;;5.85;;
11247;SDS011;5681;53.316;13.950;2022-08-26T12:55:53;22.08;;;5.68;;
11247;SDS011;5681;53.316;13.950;2022-08-26T12:58:25;30.63;;;6.53;;
11247;SDS011;5681;53.316;13.950;2022-08-26T13:00:54;27.15;;;6.28;;
11247;SDS011;5681;53.316;13.950;2022-08-26T13:06:14;29.65;;;6.00;;
11247;SDS011;5681;53.316;13.950;2022-08-26T13:08:49;28.25;;;6.50;;
11247;SDS011;5681;53.316;13.950;2022-08-26T13:11:18;20.88;;;5.68;;
11247;SDS011;5681;53.316;13.950;2022-08-26T13:13:45;25.83;;;5.65;;
11247;SDS011;5681;53.316;13.950;2022-08-26T13:16:14;19.13;;;5.68;;
11247;SDS011;5681;53.316;13.950;2022-08-26T13:18:40;19.92;;;5.70;;
11247;SDS011;5681;53.316;13.950;2022-08-26T13:21:09;23.38;;;5.78;;
11247;SDS011;5681;53.316;13.950;2022-08-26T13:23:37;21.85;;;6.22;;
11247;SDS011;5681;53.316;13.950;2022-08-26T13:26:03;24.33;;;5.93;;
11247;SDS011;5681;53.316;13.950;2022-08-26T13:28:29;28.13;;;6.50;;
11247;SDS011;5681;53.316;13.950;2022-08-26T13:30:56;21.98;;;5.93;;
11247;SDS011;5681;53.316;13.950;2022-08-26T13:33:22;32.00;;;6.85;;
11247;SDS011;5681;53.316;13.950;2022-08-26T13:35:49;26.52;;;6.20;;
11247;SDS011;5681;53.316;13.950;2022-08-26T13:38:17;28.65;;;6.72;;
11247;SDS011;5681;53.316;13.950;2022-08-26T13:40:43;31.38;;;6.63;;
11247;SDS011;5681;53.316;13.950;2022-08-26T13:43:10;25.33;;;6.65;;
11247;SDS011;5681;53.316;13.950;2022-08-26T13:45:36;18.10;;;5.55;;
11247;SDS011;5681;53.316;13.950;2022-08-26T13:48:03;27.27;;;7.28;;
11247;SDS011;5681;53.316;13.950;2022-08-26T13:50:30;21.10;;;6.13;;
11247;SDS011;5681;53.316;13.950;2022-08-26T13:52:57;27.23;;;6.25;;
11247;SDS011;5681;53.316;13.950;2022-08-26T13:55:24;23.08;;;5.82;;
11247;SDS011;5681;53.316;13.950;2022-08-26T13:57:51;18.90;;;5.75;;
11247;SDS011;5681;53.316;13.950;2022-08-26T14:00:18;24.63;;;6.70;;
11247;SDS011;5681;53.316;13.950;2022-08-26T14:02:45;19.58;;;5.88;;
11247;SDS011;5681;53.316;13.950;2022-08-26T14:05:11;17.65;;;5.70;;
11247;SDS011;5681;53.316;13.950;2022-08-26T14:07:38;16.88;;;5.63;;
11247;SDS011;5681;53.316;13.950;2022-08-26T14:10:05;20.02;;;6.32;;
11247;SDS011;5681;53.316;13.950;2022-08-26T14:12:33;23.77;;;5.85;;
11247;SDS011;5681;53.316;13.950;2022-08-26T14:14:59;24.08;;;5.78;;
11247;SDS011;5681;53.316;13.950;2022-08-26T14:17:26;25.48;;;6.22;;
11247;SDS011;5681;53.316;13.950;2022-08-26T14:19:52;21.05;;;6.07;;
11247;SDS011;5681;53.316;13.950;2022-08-26T14:22:19;23.10;;;6.72;;
11247;SDS011;5681;53.316;13.950;2022-08-26T14:24:47;21.00;;;6.63;;
11247;SDS011;5681;53.316;13.950;2022-08-26T14:27:14;33.45;;;6.60;;
11247;SDS011;5681;53.316;13.950;2022-08-26T14:29:41;22.77;;;6.20;;
11247;SDS011;5681;53.316;13.950;2022-08-26T14:32:09;20.85;;;5.78;;
11247;SDS011;5681;53.316;13.950;2022-08-26T14:34:38;21.15;;;6.40;;
11247;SDS011;5681;53.316;13.950;2022-08-26T14:37:05;23.77;;;5.88;;
11247;SDS011;5681;53.316;13.950;2022-08-26T14:39:32;19.17;;;6.03;;
11247;SDS011;5681;53.316;13.950;2022-08-26T14:41:58;30.27;;;7.03;;
11247;SDS011;5681;53.316;13.950;2022-08-26T14:44:26;24.85;;;7.28;;
11247;SDS011;5681;53.316;13.950;2022-08-26T14:46:55;24.48;;;6.57;;
11247;SDS011;5681;53.316;13.950;2022-08-26T14:49:22;24.75;;;6.03;;
11247;SDS011;5681;53.316;13.950;2022-08-26T14:51:49;28.65;;;6.15;;
11247;SDS011;5681;53.316;13.950;2022-08-26T14:54:16;16.75;;;5.20;;
11247;SDS011;5681;53.316;13.950;2022-08-26T14:56:44;20.38;;;6.30;;